Arnold Palmer Regional Airport Latrobe US
ICAO: KLBE
IATA: LBE
Category: Medium
Scheduled Services: Yes

Elevation: 1199 ft
TransAlt. 18000 ft.

Airport Communications:
ATIS:118.375
AWOS 3:118.375
CLEVELAND CNTR:124.4
CTAF:125
GND:121.8
TWR:125

KLBE Zoom In..

If you have problems with the map follow the link
https://www.worldairports.se/pages/airport.php?
ICAO=KLBE

Runways:

(A) RW 03 length 3609 ft width 75 ft
---- / hdg 29

(B) RW 05 length 8222 ft width 100 ft
---- / hdg 55

(C) RW 21 length 3609 ft width 75 ft
---- / hdg 209

(D) RW 23 length 8222 ft width 100 ft
ILS 110.90 / hdg 235

Location; KLBE
Day. 05 / Time. 20.50 Zulu
* Altimeter: 30.04
* Temperature: 03° c. 37.4°f.
* Wind from: 270° Speed 08 kn.
Dewpoint: -04° c.
Visibility: 10 Statute Miles.
Clouds: Few 4000 ft.

KLBE 052050Z 27008KT 10SM FEW040 03/M04 A3004


Wind From 270°
Speed 08 kn.

 
 
jpsmedia worldairports.se 2019   terms of use